sensor_id;sensor_type;location;lat;lon;timestamp;P1;durP1;ratioP1;P2;durP2;ratioP2
5795;SDS011;2924;51.458;7.046;2024-02-26T00:01:39;0.60;;;0.57;;
5795;SDS011;2924;51.458;7.046;2024-02-26T00:04:04;0.60;;;0.60;;
5795;SDS011;2924;51.458;7.046;2024-02-26T00:06:30;0.50;;;0.50;;
5795;SDS011;2924;51.458;7.046;2024-02-26T00:08:56;0.70;;;0.70;;
5795;SDS011;2924;51.458;7.046;2024-02-26T00:11:22;0.70;;;0.70;;
5795;SDS011;2924;51.458;7.046;2024-02-26T00:13:47;1.00;;;0.90;;
5795;SDS011;2924;51.458;7.046;2024-02-26T00:16:13;3.30;;;0.80;;
5795;SDS011;2924;51.458;7.046;2024-02-26T00:18:39;1.73;;;1.10;;
5795;SDS011;2924;51.458;7.046;2024-02-26T00:21:05;1.70;;;0.70;;
5795;SDS011;2924;51.458;7.046;2024-02-26T00:23:30;0.93;;;0.90;;
5795;SDS011;2924;51.458;7.046;2024-02-26T00:25:56;2.60;;;0.83;;
5795;SDS011;2924;51.458;7.046;2024-02-26T00:28:21;2.07;;;0.87;;
5795;SDS011;2924;51.458;7.046;2024-02-26T00:30:47;1.00;;;1.00;;
5795;SDS011;2924;51.458;7.046;2024-02-26T00:33:16;1.77;;;0.97;;
5795;SDS011;2924;51.458;7.046;2024-02-26T00:35:42;0.97;;;0.87;;
5795;SDS011;2924;51.458;7.046;2024-02-26T00:38:07;0.70;;;0.70;;
5795;SDS011;2924;51.458;7.046;2024-02-26T00:40:33;0.80;;;0.80;;
5795;SDS011;2924;51.458;7.046;2024-02-26T00:42:59;0.90;;;0.87;;
5795;SDS011;2924;51.458;7.046;2024-02-26T00:45:26;0.80;;;0.80;;
5795;SDS011;2924;51.458;7.046;2024-02-26T00:47:52;0.80;;;0.80;;
5795;SDS011;2924;51.458;7.046;2024-02-26T00:50:18;0.90;;;0.90;;
5795;SDS011;2924;51.458;7.046;2024-02-26T00:52:43;0.83;;;0.80;;
5795;SDS011;2924;51.458;7.046;2024-02-26T00:55:09;1.53;;;0.73;;
5795;SDS011;2924;51.458;7.046;2024-02-26T00:57:35;3.00;;;0.80;;
5795;SDS011;2924;51.458;7.046;2024-02-26T01:00:00;0.70;;;0.70;;
5795;SDS011;2924;51.458;7.046;2024-02-26T01:02:26;0.77;;;0.77;;
5795;SDS011;2924;51.458;7.046;2024-02-26T01:04:52;0.90;;;0.83;;
5795;SDS011;2924;51.458;7.046;2024-02-26T01:07:19;0.70;;;0.70;;
5795;SDS011;2924;51.458;7.046;2024-02-26T01:09:44;2.00;;;0.60;;
5795;SDS011;2924;51.458;7.046;2024-02-26T01:12:10;1.40;;;0.63;;
5795;SDS011;2924;51.458;7.046;2024-02-26T01:14:35;0.87;;;0.87;;
5795;SDS011;2924;51.458;7.046;2024-02-26T01:17:01;2.77;;;0.93;;
5795;SDS011;2924;51.458;7.046;2024-02-26T01:19:27;1.73;;;1.07;;
5795;SDS011;2924;51.458;7.046;2024-02-26T01:21:52;1.83;;;1.17;;
5795;SDS011;2924;51.458;7.046;2024-02-26T01:24:18;2.63;;;1.00;;
5795;SDS011;2924;51.458;7.046;2024-02-26T01:26:44;1.00;;;0.90;;
5795;SDS011;2924;51.458;7.046;2024-02-26T01:29:09;1.17;;;1.03;;
5795;SDS011;2924;51.458;7.046;2024-02-26T01:31:35;1.37;;;1.27;;
5795;SDS011;2924;51.458;7.046;2024-02-26T01:34:01;1.10;;;0.80;;
5795;SDS011;2924;51.458;7.046;2024-02-26T01:36:26;0.87;;;0.83;;
5795;SDS011;2924;51.458;7.046;2024-02-26T01:38:52;0.80;;;0.80;;
5795;SDS011;2924;51.458;7.046;2024-02-26T01:41:17;0.60;;;0.60;;
5795;SDS011;2924;51.458;7.046;2024-02-26T01:43:43;0.90;;;0.90;;
5795;SDS011;2924;51.458;7.046;2024-02-26T01:46:10;1.13;;;0.90;;
5795;SDS011;2924;51.458;7.046;2024-02-26T01:48:39;0.93;;;0.70;;
5795;SDS011;2924;51.458;7.046;2024-02-26T01:51:07;0.73;;;0.73;;
5795;SDS011;2924;51.458;7.046;2024-02-26T01:53:34;1.70;;;1.20;;
5795;SDS011;2924;51.458;7.046;2024-02-26T01:56:00;1.47;;;1.13;;
5795;SDS011;2924;51.458;7.046;2024-02-26T01:58:26;1.10;;;1.00;;
5795;SDS011;2924;51.458;7.046;2024-02-26T02:00:52;1.87;;;1.00;;
5795;SDS011;2924;51.458;7.046;2024-02-26T02:03:18;0.77;;;0.77;;
5795;SDS011;2924;51.458;7.046;2024-02-26T02:05:44;0.70;;;0.70;;
5795;SDS011;2924;51.458;7.046;2024-02-26T02:08:12;3.20;;;1.20;;
5795;SDS011;2924;51.458;7.046;2024-02-26T02:10:39;0.93;;;0.90;;
5795;SDS011;2924;51.458;7.046;2024-02-26T02:13:07;2.10;;;1.30;;
5795;SDS011;2924;51.458;7.046;2024-02-26T02:15:32;3.03;;;1.70;;
5795;SDS011;2924;51.458;7.046;2024-02-26T02:17:58;4.47;;;2.40;;
5795;SDS011;2924;51.458;7.046;2024-02-26T02:20:24;2.60;;;2.17;;
5795;SDS011;2924;51.458;7.046;2024-02-26T02:22:56;3.07;;;2.40;;
5795;SDS011;2924;51.458;7.046;2024-02-26T02:25:21;2.37;;;2.10;;
5795;SDS011;2924;51.458;7.046;2024-02-26T02:27:47;1.97;;;1.87;;
5795;SDS011;2924;51.458;7.046;2024-02-26T02:30:13;1.53;;;1.43;;
5795;SDS011;2924;51.458;7.046;2024-02-26T02:32:39;0.97;;;0.97;;
5795;SDS011;2924;51.458;7.046;2024-02-26T02:35:08;1.20;;;1.07;;
5795;SDS011;2924;51.458;7.046;2024-02-26T02:37:34;0.80;;;0.80;;
5795;SDS011;2924;51.458;7.046;2024-02-26T02:40:00;1.17;;;1.17;;
5795;SDS011;2924;51.458;7.046;2024-02-26T02:42:25;1.47;;;1.37;;
5795;SDS011;2924;51.458;7.046;2024-02-26T02:44:51;1.47;;;1.30;;
5795;SDS011;2924;51.458;7.046;2024-02-26T02:47:17;2.60;;;0.90;;
5795;SDS011;2924;51.458;7.046;2024-02-26T02:49:42;1.60;;;1.50;;
5795;SDS011;2924;51.458;7.046;2024-02-26T02:52:08;1.33;;;1.13;;
5795;SDS011;2924;51.458;7.046;2024-02-26T02:54:33;2.00;;;1.10;;
5795;SDS011;2924;51.458;7.046;2024-02-26T02:56:59;0.90;;;0.87;;
5795;SDS011;2924;51.458;7.046;2024-02-26T02:59:25;1.00;;;0.90;;
5795;SDS011;2924;51.458;7.046;2024-02-26T03:01:50;2.60;;;1.23;;
5795;SDS011;2924;51.458;7.046;2024-02-26T03:04:17;2.20;;;1.03;;
5795;SDS011;2924;51.458;7.046;2024-02-26T03:06:42;1.23;;;1.10;;
5795;SDS011;2924;51.458;7.046;2024-02-26T03:09:08;1.00;;;0.70;;
5795;SDS011;2924;51.458;7.046;2024-02-26T03:11:33;1.00;;;0.90;;
5795;SDS011;2924;51.458;7.046;2024-02-26T03:13:59;2.23;;;0.93;;
5795;SDS011;2924;51.458;7.046;2024-02-26T03:16:25;0.90;;;0.70;;
5795;SDS011;2924;51.458;7.046;2024-02-26T03:18:50;0.60;;;0.60;;
5795;SDS011;2924;51.458;7.046;2024-02-26T03:21:16;2.20;;;1.27;;
5795;SDS011;2924;51.458;7.046;2024-02-26T03:23:41;5.20;;;0.93;;
5795;SDS011;2924;51.458;7.046;2024-02-26T03:26:07;2.63;;;1.43;;
5795;SDS011;2924;51.458;7.046;2024-02-26T03:28:33;1.97;;;0.87;;
5795;SDS011;2924;51.458;7.046;2024-02-26T03:30:59;0.77;;;0.60;;
5795;SDS011;2924;51.458;7.046;2024-02-26T03:33:26;1.03;;;1.00;;
5795;SDS011;2924;51.458;7.046;2024-02-26T03:35:51;0.93;;;0.90;;
5795;SDS011;2924;51.458;7.046;2024-02-26T03:38:17;1.60;;;1.03;;
5795;SDS011;2924;51.458;7.046;2024-02-26T03:40:43;3.13;;;1.17;;
5795;SDS011;2924;51.458;7.046;2024-02-26T03:43:08;2.00;;;0.90;;
5795;SDS011;2924;51.458;7.046;2024-02-26T03:45:34;3.77;;;1.30;;
5795;SDS011;2924;51.458;7.046;2024-02-26T03:47:59;1.03;;;0.80;;
5795;SDS011;2924;51.458;7.046;2024-02-26T03:50:25;1.50;;;1.40;;
5795;SDS011;2924;51.458;7.046;2024-02-26T03:52:50;0.90;;;0.90;;
5795;SDS011;2924;51.458;7.046;2024-02-26T03:55:16;3.90;;;1.37;;
5795;SDS011;2924;51.458;7.046;2024-02-26T03:57:46;1.00;;;0.90;;
5795;SDS011;2924;51.458;7.046;2024-02-26T04:00:11;1.00;;;0.93;;
5795;SDS011;2924;51.458;7.046;2024-02-26T04:02:38;1.50;;;1.40;;
5795;SDS011;2924;51.458;7.046;2024-02-26T04:05:03;8.27;;;1.10;;
5795;SDS011;2924;51.458;7.046;2024-02-26T04:07:29;1.00;;;1.00;;
5795;SDS011;2924;51.458;7.046;2024-02-26T04:09:55;5.30;;;1.50;;
5795;SDS011;2924;51.458;7.046;2024-02-26T04:12:21;1.00;;;0.90;;
5795;SDS011;2924;51.458;7.046;2024-02-26T04:14:46;0.93;;;0.93;;
5795;SDS011;2924;51.458;7.046;2024-02-26T04:17:12;1.40;;;1.30;;
5795;SDS011;2924;51.458;7.046;2024-02-26T04:19:38;1.50;;;1.40;;
5795;SDS011;2924;51.458;7.046;2024-02-26T04:22:03;1.70;;;1.07;;
5795;SDS011;2924;51.458;7.046;2024-02-26T04:24:29;2.63;;;1.77;;
5795;SDS011;2924;51.458;7.046;2024-02-26T04:26:54;3.13;;;0.90;;
5795;SDS011;2924;51.458;7.046;2024-02-26T04:29:20;1.10;;;1.10;;
5795;SDS011;2924;51.458;7.046;2024-02-26T04:31:45;1.10;;;1.00;;
5795;SDS011;2924;51.458;7.046;2024-02-26T04:34:11;0.90;;;0.90;;
5795;SDS011;2924;51.458;7.046;2024-02-26T04:36:37;1.20;;;1.10;;
5795;SDS011;2924;51.458;7.046;2024-02-26T04:39:02;1.00;;;1.00;;
5795;SDS011;2924;51.458;7.046;2024-02-26T04:41:28;1.57;;;1.47;;
5795;SDS011;2924;51.458;7.046;2024-02-26T04:43:54;1.47;;;1.37;;
5795;SDS011;2924;51.458;7.046;2024-02-26T04:46:19;1.70;;;1.37;;
5795;SDS011;2924;51.458;7.046;2024-02-26T04:48:46;4.30;;;1.07;;
5795;SDS011;2924;51.458;7.046;2024-02-26T04:51:12;2.57;;;1.53;;
5795;SDS011;2924;51.458;7.046;2024-02-26T04:53:38;2.00;;;1.40;;
5795;SDS011;2924;51.458;7.046;2024-02-26T04:56:03;2.20;;;2.03;;
5795;SDS011;2924;51.458;7.046;2024-02-26T04:58:29;1.27;;;1.27;;
5795;SDS011;2924;51.458;7.046;2024-02-26T05:00:55;1.10;;;1.07;;
5795;SDS011;2924;51.458;7.046;2024-02-26T05:03:20;1.60;;;1.50;;
5795;SDS011;2924;51.458;7.046;2024-02-26T05:05:46;1.27;;;1.17;;
5795;SDS011;2924;51.458;7.046;2024-02-26T05:08:12;1.47;;;1.37;;
5795;SDS011;2924;51.458;7.046;2024-02-26T05:10:37;2.07;;;1.77;;
5795;SDS011;2924;51.458;7.046;2024-02-26T05:13:08;1.87;;;1.57;;
5795;SDS011;2924;51.458;7.046;2024-02-26T05:15:33;1.73;;;1.63;;
5795;SDS011;2924;51.458;7.046;2024-02-26T05:17:59;1.80;;;1.70;;
5795;SDS011;2924;51.458;7.046;2024-02-26T05:20:25;4.80;;;1.90;;
5795;SDS011;2924;51.458;7.046;2024-02-26T05:22:51;22.87;;;2.10;;
5795;SDS011;2924;51.458;7.046;2024-02-26T05:25:16;4.30;;;2.03;;
5795;SDS011;2924;51.458;7.046;2024-02-26T05:27:43;1.50;;;1.50;;
5795;SDS011;2924;51.458;7.046;2024-02-26T05:30:09;2.40;;;2.30;;
5795;SDS011;2924;51.458;7.046;2024-02-26T05:32:36;4.77;;;1.80;;
5795;SDS011;2924;51.458;7.046;2024-02-26T05:35:01;1.83;;;1.73;;
5795;SDS011;2924;51.458;7.046;2024-02-26T05:37:30;3.50;;;1.73;;
5795;SDS011;2924;51.458;7.046;2024-02-26T05:39:56;4.30;;;2.20;;
5795;SDS011;2924;51.458;7.046;2024-02-26T05:42:21;2.37;;;2.00;;
5795;SDS011;2924;51.458;7.046;2024-02-26T05:44:47;6.33;;;2.30;;
5795;SDS011;2924;51.458;7.046;2024-02-26T05:47:12;5.23;;;3.50;;
5795;SDS011;2924;51.458;7.046;2024-02-26T05:49:38;2.57;;;2.37;;
5795;SDS011;2924;51.458;7.046;2024-02-26T05:52:04;2.53;;;2.43;;
5795;SDS011;2924;51.458;7.046;2024-02-26T05:54:30;2.23;;;2.03;;
5795;SDS011;2924;51.458;7.046;2024-02-26T05:56:56;4.10;;;2.50;;
5795;SDS011;2924;51.458;7.046;2024-02-26T05:59:22;2.00;;;1.90;;
5795;SDS011;2924;51.458;7.046;2024-02-26T06:01:48;4.20;;;2.47;;
5795;SDS011;2924;51.458;7.046;2024-02-26T06:04:14;2.77;;;2.57;;
5795;SDS011;2924;51.458;7.046;2024-02-26T06:06:40;3.70;;;3.10;;
5795;SDS011;2924;51.458;7.046;2024-02-26T06:09:05;2.40;;;2.20;;
5795;SDS011;2924;51.458;7.046;2024-02-26T06:11:31;2.37;;;2.20;;
5795;SDS011;2924;51.458;7.046;2024-02-26T06:13:56;2.30;;;2.10;;
5795;SDS011;2924;51.458;7.046;2024-02-26T06:16:22;2.77;;;2.57;;
5795;SDS011;2924;51.458;7.046;2024-02-26T06:18:48;2.37;;;2.27;;
5795;SDS011;2924;51.458;7.046;2024-02-26T06:21:13;2.57;;;2.37;;
5795;SDS011;2924;51.458;7.046;2024-02-26T06:23:39;1.90;;;1.80;;
5795;SDS011;2924;51.458;7.046;2024-02-26T06:26:05;6.83;;;2.77;;
5795;SDS011;2924;51.458;7.046;2024-02-26T06:28:31;4.20;;;1.90;;
5795;SDS011;2924;51.458;7.046;2024-02-26T06:30:58;2.83;;;2.50;;
5795;SDS011;2924;51.458;7.046;2024-02-26T06:33:24;2.60;;;2.40;;
5795;SDS011;2924;51.458;7.046;2024-02-26T06:35:50;3.60;;;2.33;;
5795;SDS011;2924;51.458;7.046;2024-02-26T06:38:15;4.93;;;2.30;;
5795;SDS011;2924;51.458;7.046;2024-02-26T06:40:42;3.83;;;1.93;;
5795;SDS011;2924;51.458;7.046;2024-02-26T06:43:09;3.03;;;2.30;;
5795;SDS011;2924;51.458;7.046;2024-02-26T06:45:34;2.50;;;2.30;;
5795;SDS011;2924;51.458;7.046;2024-02-26T06:48:00;4.27;;;2.17;;
5795;SDS011;2924;51.458;7.046;2024-02-26T06:50:26;3.20;;;2.50;;
5795;SDS011;2924;51.458;7.046;2024-02-26T06:52:51;1.97;;;1.83;;
5795;SDS011;2924;51.458;7.046;2024-02-26T06:55:17;4.37;;;2.57;;
5795;SDS011;2924;51.458;7.046;2024-02-26T06:57:42;2.70;;;2.50;;
5795;SDS011;2924;51.458;7.046;2024-02-26T07:00:08;2.40;;;2.20;;
5795;SDS011;2924;51.458;7.046;2024-02-26T07:02:39;7.47;;;2.40;;
5795;SDS011;2924;51.458;7.046;2024-02-26T07:05:05;5.47;;;2.90;;
5795;SDS011;2924;51.458;7.046;2024-02-26T07:07:31;2.47;;;2.30;;
5795;SDS011;2924;51.458;7.046;2024-02-26T07:09:56;3.07;;;2.57;;
5795;SDS011;2924;51.458;7.046;2024-02-26T07:12:22;2.33;;;2.20;;
5795;SDS011;2924;51.458;7.046;2024-02-26T07:14:49;2.43;;;2.23;;
5795;SDS011;2924;51.458;7.046;2024-02-26T07:17:15;3.20;;;2.90;;
5795;SDS011;2924;51.458;7.046;2024-02-26T07:19:41;3.73;;;2.60;;
5795;SDS011;2924;51.458;7.046;2024-02-26T07:22:07;2.57;;;2.37;;
5795;SDS011;2924;51.458;7.046;2024-02-26T07:24:33;3.40;;;1.87;;
5795;SDS011;2924;51.458;7.046;2024-02-26T07:26:58;4.97;;;2.30;;
5795;SDS011;2924;51.458;7.046;2024-02-26T07:29:24;3.20;;;2.03;;
5795;SDS011;2924;51.458;7.046;2024-02-26T07:31:49;1.97;;;1.83;;
5795;SDS011;2924;51.458;7.046;2024-02-26T07:34:15;3.40;;;2.60;;
5795;SDS011;2924;51.458;7.046;2024-02-26T07:36:41;2.40;;;2.30;;
5795;SDS011;2924;51.458;7.046;2024-02-26T07:39:06;2.83;;;2.63;;
5795;SDS011;2924;51.458;7.046;2024-02-26T07:41:32;2.40;;;2.30;;
5795;SDS011;2924;51.458;7.046;2024-02-26T07:43:58;2.40;;;2.20;;
5795;SDS011;2924;51.458;7.046;2024-02-26T07:46:23;4.83;;;2.80;;
5795;SDS011;2924;51.458;7.046;2024-02-26T07:48:49;4.17;;;2.50;;
5795;SDS011;2924;51.458;7.046;2024-02-26T07:51:14;2.30;;;2.10;;
5795;SDS011;2924;51.458;7.046;2024-02-26T07:53:40;3.77;;;2.67;;
5795;SDS011;2924;51.458;7.046;2024-02-26T07:56:06;4.30;;;2.77;;
5795;SDS011;2924;51.458;7.046;2024-02-26T07:58:32;2.73;;;2.53;;
5795;SDS011;2924;51.458;7.046;2024-02-26T08:00:58;5.43;;;2.63;;
5795;SDS011;2924;51.458;7.046;2024-02-26T08:03:24;2.90;;;2.70;;
5795;SDS011;2924;51.458;7.046;2024-02-26T08:05:50;2.50;;;2.30;;
5795;SDS011;2924;51.458;7.046;2024-02-26T08:08:16;3.00;;;2.67;;
5795;SDS011;2924;51.458;7.046;2024-02-26T08:10:42;6.47;;;2.57;;
5795;SDS011;2924;51.458;7.046;2024-02-26T08:13:08;4.50;;;3.00;;
5795;SDS011;2924;51.458;7.046;2024-02-26T08:15:34;3.27;;;3.03;;
5795;SDS011;2924;51.458;7.046;2024-02-26T08:18:03;4.23;;;3.10;;
5795;SDS011;2924;51.458;7.046;2024-02-26T08:20:29;3.03;;;2.83;;
5795;SDS011;2924;51.458;7.046;2024-02-26T08:22:56;5.10;;;3.10;;
5795;SDS011;2924;51.458;7.046;2024-02-26T08:25:22;7.30;;;3.07;;
5795;SDS011;2924;51.458;7.046;2024-02-26T08:27:48;3.20;;;2.47;;
5795;SDS011;2924;51.458;7.046;2024-02-26T08:30:14;4.27;;;3.13;;
5795;SDS011;2924;51.458;7.046;2024-02-26T08:32:42;3.23;;;2.93;;
5795;SDS011;2924;51.458;7.046;2024-02-26T08:35:08;4.57;;;3.30;;
5795;SDS011;2924;51.458;7.046;2024-02-26T08:37:33;5.30;;;2.63;;
5795;SDS011;2924;51.458;7.046;2024-02-26T08:39:59;4.17;;;3.27;;
5795;SDS011;2924;51.458;7.046;2024-02-26T08:42:25;2.70;;;2.50;;
5795;SDS011;2924;51.458;7.046;2024-02-26T08:44:50;4.00;;;3.00;;
5795;SDS011;2924;51.458;7.046;2024-02-26T08:47:16;10.73;;;3.63;;
5795;SDS011;2924;51.458;7.046;2024-02-26T08:49:44;3.90;;;2.40;;
5795;SDS011;2924;51.458;7.046;2024-02-26T08:52:10;3.07;;;2.80;;
5795;SDS011;2924;51.458;7.046;2024-02-26T08:54:36;4.43;;;3.20;;
5795;SDS011;2924;51.458;7.046;2024-02-26T08:57:02;3.47;;;3.17;;
5795;SDS011;2924;51.458;7.046;2024-02-26T08:59:28;3.10;;;2.67;;
5795;SDS011;2924;51.458;7.046;2024-02-26T09:01:54;2.50;;;2.30;;
5795;SDS011;2924;51.458;7.046;2024-02-26T09:04:20;1.90;;;1.80;;
5795;SDS011;2924;51.458;7.046;2024-02-26T09:06:45;2.00;;;1.90;;
5795;SDS011;2924;51.458;7.046;2024-02-26T09:09:12;2.63;;;2.47;;
5795;SDS011;2924;51.458;7.046;2024-02-26T09:11:37;5.00;;;2.30;;
5795;SDS011;2924;51.458;7.046;2024-02-26T09:14:03;2.43;;;2.23;;
5795;SDS011;2924;51.458;7.046;2024-02-26T09:16:29;3.40;;;3.10;;
5795;SDS011;2924;51.458;7.046;2024-02-26T09:18:55;3.20;;;2.63;;
5795;SDS011;2924;51.458;7.046;2024-02-26T09:21:21;2.93;;;2.77;;
5795;SDS011;2924;51.458;7.046;2024-02-26T09:23:49;2.67;;;2.47;;
5795;SDS011;2924;51.458;7.046;2024-02-26T09:26:15;2.90;;;2.70;;
5795;SDS011;2924;51.458;7.046;2024-02-26T09:28:41;6.33;;;2.90;;
5795;SDS011;2924;51.458;7.046;2024-02-26T09:31:07;7.30;;;3.57;;
5795;SDS011;2924;51.458;7.046;2024-02-26T09:33:32;6.13;;;2.87;;
5795;SDS011;2924;51.458;7.046;2024-02-26T09:35:58;3.20;;;3.00;;
5795;SDS011;2924;51.458;7.046;2024-02-26T09:38:25;3.17;;;2.97;;
5795;SDS011;2924;51.458;7.046;2024-02-26T09:40:52;3.10;;;2.90;;
5795;SDS011;2924;51.458;7.046;2024-02-26T09:43:20;4.33;;;3.47;;
5795;SDS011;2924;51.458;7.046;2024-02-26T09:45:49;4.30;;;3.20;;
5795;SDS011;2924;51.458;7.046;2024-02-26T09:48:16;3.20;;;3.00;;
5795;SDS011;2924;51.458;7.046;2024-02-26T09:50:42;7.90;;;3.40;;
5795;SDS011;2924;51.458;7.046;2024-02-26T09:53:08;3.63;;;3.33;;
5795;SDS011;2924;51.458;7.046;2024-02-26T09:55:36;6.83;;;3.03;;
5795;SDS011;2924;51.458;7.046;2024-02-26T09:58:01;4.70;;;3.97;;
5795;SDS011;2924;51.458;7.046;2024-02-26T10:00:31;6.97;;;4.43;;
5795;SDS011;2924;51.458;7.046;2024-02-26T10:03:03;3.80;;;3.20;;
5795;SDS011;2924;51.458;7.046;2024-02-26T10:05:30;5.60;;;3.60;;
5795;SDS011;2924;51.458;7.046;2024-02-26T10:07:58;6.20;;;3.60;;
5795;SDS011;2924;51.458;7.046;2024-02-26T10:10:26;7.97;;;3.87;;
5795;SDS011;2924;51.458;7.046;2024-02-26T10:12:53;5.10;;;3.83;;
5795;SDS011;2924;51.458;7.046;2024-02-26T10:15:19;13.90;;;3.80;;
5795;SDS011;2924;51.458;7.046;2024-02-26T10:17:44;7.00;;;3.70;;
5795;SDS011;2924;51.458;7.046;2024-02-26T10:20:14;10.87;;;3.73;;
5795;SDS011;2924;51.458;7.046;2024-02-26T10:22:41;8.03;;;4.20;;
5795;SDS011;2924;51.458;7.046;2024-02-26T10:25:07;6.90;;;3.90;;
5795;SDS011;2924;51.458;7.046;2024-02-26T10:27:34;3.87;;;3.57;;
5795;SDS011;2924;51.458;7.046;2024-02-26T10:30:36;5.87;;;4.20;;
5795;SDS011;2924;51.458;7.046;2024-02-26T10:32:52;3.87;;;3.57;;
5795;SDS011;2924;51.458;7.046;2024-02-26T10:35:18;8.40;;;4.70;;
5795;SDS011;2924;51.458;7.046;2024-02-26T10:37:45;8.00;;;4.40;;
5795;SDS011;2924;51.458;7.046;2024-02-26T10:40:11;10.90;;;4.77;;
5795;SDS011;2924;51.458;7.046;2024-02-26T10:42:38;5.20;;;4.70;;
5795;SDS011;2924;51.458;7.046;2024-02-26T10:45:05;4.67;;;4.27;;
5795;SDS011;2924;51.458;7.046;2024-02-26T10:47:31;7.10;;;4.53;;
5795;SDS011;2924;51.458;7.046;2024-02-26T10:49:58;6.23;;;4.50;;
5795;SDS011;2924;51.458;7.046;2024-02-26T10:52:24;6.50;;;4.93;;
5795;SDS011;2924;51.458;7.046;2024-02-26T10:54:53;5.87;;;4.63;;
5795;SDS011;2924;51.458;7.046;2024-02-26T10:57:20;7.57;;;4.60;;
5795;SDS011;2924;51.458;7.046;2024-02-26T10:59:47;7.30;;;5.00;;
5795;SDS011;2924;51.458;7.046;2024-02-26T11:02:14;5.10;;;4.20;;
5795;SDS011;2924;51.458;7.046;2024-02-26T11:04:40;5.80;;;4.63;;
5795;SDS011;2924;51.458;7.046;2024-02-26T11:07:06;11.90;;;4.60;;
5795;SDS011;2924;51.458;7.046;2024-02-26T11:09:35;6.80;;;4.43;;
5795;SDS011;2924;51.458;7.046;2024-02-26T11:12:06;5.33;;;4.10;;
5795;SDS011;2924;51.458;7.046;2024-02-26T11:14:36;7.20;;;3.80;;
5795;SDS011;2924;51.458;7.046;2024-02-26T11:17:03;5.40;;;4.63;;
5795;SDS011;2924;51.458;7.046;2024-02-26T11:19:30;4.30;;;3.97;;
5795;SDS011;2924;51.458;7.046;2024-02-26T11:21:58;7.27;;;3.90;;
5795;SDS011;2924;51.458;7.046;2024-02-26T11:24:26;5.20;;;4.13;;
5795;SDS011;2924;51.458;7.046;2024-02-26T11:26:53;5.60;;;4.00;;
5795;SDS011;2924;51.458;7.046;2024-02-26T11:29:24;6.47;;;3.97;;
5795;SDS011;2924;51.458;7.046;2024-02-26T11:31:53;3.43;;;3.23;;
5795;SDS011;2924;51.458;7.046;2024-02-26T11:34:19;4.00;;;3.70;;
5795;SDS011;2924;51.458;7.046;2024-02-26T11:36:45;6.00;;;4.20;;
5795;SDS011;2924;51.458;7.046;2024-02-26T11:39:11;4.33;;;3.93;;
5795;SDS011;2924;51.458;7.046;2024-02-26T11:41:40;3.60;;;3.40;;
5795;SDS011;2924;51.458;7.046;2024-02-26T11:44:05;4.33;;;3.93;;
5795;SDS011;2924;51.458;7.046;2024-02-26T11:46:39;6.30;;;3.80;;
5795;SDS011;2924;51.458;7.046;2024-02-26T11:51:57;6.60;;;4.40;;
5795;SDS011;2924;51.458;7.046;2024-02-26T11:54:44;4.17;;;3.83;;
5795;SDS011;2924;51.458;7.046;2024-02-26T11:57:40;6.90;;;5.20;;
5795;SDS011;2924;51.458;7.046;2024-02-26T12:00:12;5.83;;;3.90;;
5795;SDS011;2924;51.458;7.046;2024-02-26T12:02:39;5.33;;;4.10;;
5795;SDS011;2924;51.458;7.046;2024-02-26T12:07:44;6.40;;;5.17;;
5795;SDS011;2924;51.458;7.046;2024-02-26T12:10:15;6.73;;;4.50;;
5795;SDS011;2924;51.458;7.046;2024-02-26T12:12:50;8.03;;;4.90;;
5795;SDS011;2924;51.458;7.046;2024-02-26T12:15:18;5.90;;;4.90;;
5795;SDS011;2924;51.458;7.046;2024-02-26T12:17:48;7.80;;;5.60;;
5795;SDS011;2924;51.458;7.046;2024-02-26T12:20:14;6.13;;;4.57;;
5795;SDS011;2924;51.458;7.046;2024-02-26T12:22:44;6.30;;;4.90;;
5795;SDS011;2924;51.458;7.046;2024-02-26T12:25:14;5.00;;;4.53;;
5795;SDS011;2924;51.458;7.046;2024-02-26T12:27:39;6.30;;;4.37;;
5795;SDS011;2924;51.458;7.046;2024-02-26T12:30:05;8.27;;;5.00;;
5795;SDS011;2924;51.458;7.046;2024-02-26T12:32:32;16.60;;;4.40;;
5795;SDS011;2924;51.458;7.046;2024-02-26T12:34:58;7.47;;;4.77;;
5795;SDS011;2924;51.458;7.046;2024-02-26T12:37:25;5.53;;;4.77;;
5795;SDS011;2924;51.458;7.046;2024-02-26T12:39:52;7.87;;;5.10;;
5795;SDS011;2924;51.458;7.046;2024-02-26T12:42:17;5.17;;;4.50;;
5795;SDS011;2924;51.458;7.046;2024-02-26T12:44:44;5.17;;;4.47;;
5795;SDS011;2924;51.458;7.046;2024-02-26T12:47:10;5.17;;;4.67;;
5795;SDS011;2924;51.458;7.046;2024-02-26T12:49:41;5.50;;;3.90;;
5795;SDS011;2924;51.458;7.046;2024-02-26T12:52:08;6.67;;;4.30;;
5795;SDS011;2924;51.458;7.046;2024-02-26T12:54:35;5.13;;;4.27;;
5795;SDS011;2924;51.458;7.046;2024-02-26T12:57:04;8.10;;;3.93;;
5795;SDS011;2924;51.458;7.046;2024-02-26T12:59:31;5.97;;;4.43;;
5795;SDS011;2924;51.458;7.046;2024-02-26T13:01:58;3.90;;;3.60;;
5795;SDS011;2924;51.458;7.046;2024-02-26T13:04:24;3.83;;;3.53;;
5795;SDS011;2924;51.458;7.046;2024-02-26T13:06:50;4.00;;;3.70;;
5795;SDS011;2924;51.458;7.046;2024-02-26T13:09:16;4.67;;;4.03;;
5795;SDS011;2924;51.458;7.046;2024-02-26T13:11:43;5.20;;;4.03;;
5795;SDS011;2924;51.458;7.046;2024-02-26T13:14:19;3.70;;;3.30;;
5795;SDS011;2924;51.458;7.046;2024-02-26T13:16:54;2.90;;;2.63;;
5795;SDS011;2924;51.458;7.046;2024-02-26T13:19:21;3.73;;;2.80;;
5795;SDS011;2924;51.458;7.046;2024-02-26T13:21:46;3.80;;;3.50;;
5795;SDS011;2924;51.458;7.046;2024-02-26T13:24:15;3.50;;;3.20;;
5795;SDS011;2924;51.458;7.046;2024-02-26T13:26:41;3.50;;;3.20;;
5795;SDS011;2924;51.458;7.046;2024-02-26T13:29:07;5.07;;;3.83;;
5795;SDS011;2924;51.458;7.046;2024-02-26T13:31:38;3.67;;;3.37;;
5795;SDS011;2924;51.458;7.046;2024-02-26T13:34:05;4.53;;;3.13;;
5795;SDS011;2924;51.458;7.046;2024-02-26T13:36:30;3.67;;;3.20;;
5795;SDS011;2924;51.458;7.046;2024-02-26T13:38:56;2.70;;;2.17;;
5795;SDS011;2924;51.458;7.046;2024-02-26T13:41:22;4.07;;;3.07;;
5795;SDS011;2924;51.458;7.046;2024-02-26T13:43:48;5.10;;;2.80;;
5795;SDS011;2924;51.458;7.046;2024-02-26T13:46:14;3.50;;;2.43;;
5795;SDS011;2924;51.458;7.046;2024-02-26T13:48:40;8.90;;;3.50;;
5795;SDS011;2924;51.458;7.046;2024-02-26T13:51:06;2.83;;;2.60;;
5795;SDS011;2924;51.458;7.046;2024-02-26T13:53:32;2.67;;;2.20;;
5795;SDS011;2924;51.458;7.046;2024-02-26T13:55:58;2.80;;;2.60;;
5795;SDS011;2924;51.458;7.046;2024-02-26T13:58:26;3.53;;;3.10;;
5795;SDS011;2924;51.458;7.046;2024-02-26T14:00:53;2.20;;;2.03;;
5795;SDS011;2924;51.458;7.046;2024-02-26T14:03:19;3.43;;;3.07;;
5795;SDS011;2924;51.458;7.046;2024-02-26T14:05:45;2.20;;;2.10;;
5795;SDS011;2924;51.458;7.046;2024-02-26T14:08:11;3.17;;;2.57;;
5795;SDS011;2924;51.458;7.046;2024-02-26T14:10:37;2.90;;;2.70;;
5795;SDS011;2924;51.458;7.046;2024-02-26T14:13:03;3.23;;;2.93;;
5795;SDS011;2924;51.458;7.046;2024-02-26T14:15:29;3.97;;;2.53;;
5795;SDS011;2924;51.458;7.046;2024-02-26T14:17:55;2.70;;;2.50;;
5795;SDS011;2924;51.458;7.046;2024-02-26T14:20:24;3.07;;;2.83;;
5795;SDS011;2924;51.458;7.046;2024-02-26T14:22:51;3.00;;;2.80;;
5795;SDS011;2924;51.458;7.046;2024-02-26T14:25:23;3.07;;;2.87;;
5795;SDS011;2924;51.458;7.046;2024-02-26T14:27:49;4.03;;;2.13;;
5795;SDS011;2924;51.458;7.046;2024-02-26T14:30:15;2.93;;;2.70;;
5795;SDS011;2924;51.458;7.046;2024-02-26T14:32:40;2.93;;;2.53;;
5795;SDS011;2924;51.458;7.046;2024-02-26T14:35:07;2.27;;;2.17;;
5795;SDS011;2924;51.458;7.046;2024-02-26T14:37:34;6.20;;;3.33;;
5795;SDS011;2924;51.458;7.046;2024-02-26T14:40:00;2.80;;;2.60;;
5795;SDS011;2924;51.458;7.046;2024-02-26T14:42:27;3.07;;;2.80;;
5795;SDS011;2924;51.458;7.046;2024-02-26T14:44:54;4.00;;;2.30;;
5795;SDS011;2924;51.458;7.046;2024-02-26T14:47:19;2.93;;;2.50;;
5795;SDS011;2924;51.458;7.046;2024-02-26T14:49:45;2.13;;;1.93;;
5795;SDS011;2924;51.458;7.046;2024-02-26T14:52:13;7.23;;;2.50;;
5795;SDS011;2924;51.458;7.046;2024-02-26T14:54:41;3.80;;;2.27;;
5795;SDS011;2924;51.458;7.046;2024-02-26T14:57:07;6.97;;;2.93;;
5795;SDS011;2924;51.458;7.046;2024-02-26T14:59:33;3.27;;;2.40;;
5795;SDS011;2924;51.458;7.046;2024-02-26T15:02:01;1.90;;;1.80;;
5795;SDS011;2924;51.458;7.046;2024-02-26T15:04:27;3.27;;;2.70;;
5795;SDS011;2924;51.458;7.046;2024-02-26T15:06:52;3.27;;;2.10;;
5795;SDS011;2924;51.458;7.046;2024-02-26T15:09:18;2.00;;;1.90;;
5795;SDS011;2924;51.458;7.046;2024-02-26T15:11:44;4.50;;;2.10;;
5795;SDS011;2924;51.458;7.046;2024-02-26T15:14:10;2.60;;;2.17;;
5795;SDS011;2924;51.458;7.046;2024-02-26T15:16:36;10.97;;;1.80;;